Caddo, Texas
Current Conditions -  °F | °C
As of 12:35 PM on Friday 24 Oct 2014 (Local Time) from KBKD Reporting Station
Clear Clear  
Wind Chill: 82°   Ceiling: Unl
Heat Index: 82°   Visibility: 7mi
Dew Point: 60°   Wind: 8mph
Humidity: 48%   Direction: 210°SSW
Pressure: 30.14"   Gusts: NA
Location:  32.72°N, 98.67°W
Report Text: KBKD 241735Z AUTO 21007KT 7SM CLR 28/16 A3014 RMK AO2 T02770157
Loading
Personal Weather Stations






























Interactive Weather Map
Tropical Storm Tracking
New forecast layout! Learn more

10-Day Weather Forecast

Advertisements
Track Severe Weather on mobile